Observation data for Wolfforth on 06/26/2019      Previous  Date  Next       Current Mesonet Observations  Soil Data  Daily Summary Page  Observations in Plain Language
KWOS 260500Z 08019G26KT 26/16 A3013 RMK A01 T02550161  RH  059%=      5-min Rain = 0
KWOS 260505Z 08020KT 25/16 A3013 RMK A01 T02540162  RH  059%=      5-min Rain = 0
KWOS 260510Z 08019G26KT 25/16 A3013 RMK A01 T02530163  RH  060%=      5-min Rain = 0
KWOS 260515Z 09019G24KT 25/17 A3013 RMK A01 T02530165  RH  061%=      5-min Rain = 0
KWOS 260520Z 09016G23KT 25/17 A3013 RMK A01 T02530166  RH  061%=      5-min Rain = 0
KWOS 260525Z 09017G22KT 25/17 A3012 RMK A01 T02510165  RH  062%=      5-min Rain = 0
KWOS 260530Z 10016G22KT 25/17 A3012 RMK A01 T02510165  RH  062%=      5-min Rain = 0
KWOS 260535Z 11015G20KT 25/17 A3012 RMK A01 T02520165  RH  062%=      5-min Rain = 0
KWOS 260540Z 11016KT 25/17 A3012 RMK A01 T02500167  RH  063%=      5-min Rain = 0
KWOS 260545Z 11015KT 25/17 A3012 RMK A01 T02490167  RH  063%=      5-min Rain = 0
KWOS 260550Z 11014G20KT 25/17 A3012 RMK A01 T02470166  RH  064%=      5-min Rain = 0
KWOS 260555Z 11015KT 25/17 A3011 RMK A01 T02460166  RH  064%=      5-min Rain = 0
KWOS 260600Z 11015KT 25/17 A3011 RMK A01 T02450166  RH  065%=      5-min Rain = 0
KWOS 260605Z 12014KT 24/17 A3011 RMK A01 T02420167  RH  066%=      5-min Rain = 0
KWOS 260610Z 12014KT 24/17 A3011 RMK A01 T02400166  RH  066%=      5-min Rain = 0
KWOS 260615Z 13013KT 24/17 A3011 RMK A01 T02390165  RH  067%=      5-min Rain = 0
KWOS 260620Z 13014G19KT 24/16 A3011 RMK A01 T02380164  RH  067%=      5-min Rain = 0
KWOS 260625Z 13012KT 24/16 A3011 RMK A01 T02370164  RH  067%=      5-min Rain = 0
KWOS 260630Z 13011KT 24/16 A3011 RMK A01 T02350163  RH  067%=      5-min Rain = 0
KWOS 260635Z 14009G14KT 23/16 A3011 RMK A01 T02340163  RH  068%=      5-min Rain = 0
KWOS 260640Z 14009G14KT 23/16 A3012 RMK A01 T02330163  RH  068%=      5-min Rain = 0
KWOS 260645Z 12008KT 23/16 A3012 RMK A01 T02320162  RH  068%=      5-min Rain = 0
KWOS 260650Z 11008KT 23/16 A3012 RMK A01 T02320162  RH  068%=      5-min Rain = 0
KWOS 260655Z 11007KT 23/16 A3012 RMK A01 T02310162  RH  068%=      5-min Rain = 0
KWOS 260700Z 11008KT 23/16 A3012 RMK A01 T02300162  RH  068%=      5-min Rain = 0
KWOS 260705Z 11010KT 23/16 A3011 RMK A01 T02300161  RH  068%=      5-min Rain = 0
KWOS 260710Z 12012KT 23/16 A301 RMK A01 T02290160  RH  068%=      5-min Rain = 0
KWOS 260715Z 13013KT 23/16 A3009 RMK A01 T02280160  RH  068%=      5-min Rain = 0
KWOS 260720Z 14014KT 23/16 A3008 RMK A01 T02260159  RH  069%=      5-min Rain = 0
KWOS 260725Z 15016G21KT 23/16 A3007 RMK A01 T02260159  RH  069%=      5-min Rain = 0
KWOS 260730Z 15016G21KT 23/16 A3006 RMK A01 T02260158  RH  069%=      5-min Rain = 0
KWOS 260735Z 16017G24KT 23/16 A3006 RMK A01 T02250159  RH  069%=      5-min Rain = 0
KWOS 260740Z 16019KT 22/16 A3006 RMK A01 T02240159  RH  070%=      5-min Rain = 0
KWOS 260745Z 16019G25KT 22/16 A3005 RMK A01 T02230159  RH  070%=      5-min Rain = 0
KWOS 260750Z 16019G25KT 22/16 A3005 RMK A01 T02220159  RH  071%=      5-min Rain = 0
KWOS 260755Z 16019G25KT 22/16 A3006 RMK A01 T02220159  RH  071%=      5-min Rain = 0
KWOS 260800Z 16016KT 22/16 A3006 RMK A01 T02210159  RH  071%=      5-min Rain = 0
KWOS 260805Z 16017G23KT 22/16 A3006 RMK A01 T02210160  RH  071%=      5-min Rain = 0
KWOS 260810Z 16015KT 22/16 A3007 RMK A01 T02210160  RH  072%=      5-min Rain = 0
KWOS 260815Z 15012KT 22/16 A3007 RMK A01 T02210160  RH  072%=      5-min Rain = 0
KWOS 260820Z 15010G15KT 22/16 A3008 RMK A01 T02190160  RH  072%=      5-min Rain = 0
KWOS 260825Z 15009KT 22/16 A3009 RMK A01 T02170160  RH  073%=      5-min Rain = 0
KWOS 260830Z 15009KT 22/16 A3009 RMK A01 T02170160  RH  073%=      5-min Rain = 0
KWOS 260835Z 16009KT 22/16 A3009 RMK A01 T02170160  RH  073%=      5-min Rain = 0
KWOS 260840Z 16007KT 22/16 A3009 RMK A01 T02160160  RH  074%=      5-min Rain = 0
KWOS 260845Z 17008KT 22/16 A3008 RMK A01 T02150160  RH  074%=      5-min Rain = 0
KWOS 260850Z 17009KT 21/16 A3008 RMK A01 T02140160  RH  075%=      5-min Rain = 0
KWOS 260855Z 16008KT 22/16 A3008 RMK A01 T02150160  RH  075%=      5-min Rain = 0
KWOS 260900Z 16009KT 21/16 A3008 RMK A01 T02140160  RH  075%=      5-min Rain = 0
KWOS 260905Z 17009KT 21/16 A3007 RMK A01 T02130160  RH  076%=      5-min Rain = 0
KWOS 260910Z 17010KT 21/16 A3007 RMK A01 T02130160  RH  075%=      5-min Rain = 0
KWOS 260915Z 18009KT 21/16 A3007 RMK A01 T02120160  RH  076%=      5-min Rain = 0
KWOS 260920Z 18009KT 21/16 A3007 RMK A01 T02100160  RH  077%=      5-min Rain = 0
KWOS 260925Z 18010KT 21/16 A3007 RMK A01 T02100160  RH  077%=      5-min Rain = 0
KWOS 260930Z 18010KT 21/16 A3007 RMK A01 T02100160  RH  077%=      5-min Rain = 0
KWOS 260935Z 18010KT 21/16 A3007 RMK A01 T02090160  RH  077%=      5-min Rain = 0
KWOS 260940Z 17009KT 21/16 A3007 RMK A01 T02090160  RH  077%=      5-min Rain = 0
KWOS 260945Z 17010KT 21/16 A3007 RMK A01 T02080160  RH  077%=      5-min Rain = 0
KWOS 260950Z 16009KT 21/16 A3008 RMK A01 T02080160  RH  077%=      5-min Rain = 0
KWOS 260955Z 16007KT 21/16 A3008 RMK A01 T02070159  RH  078%=      5-min Rain = 0
KWOS 261000Z 17009KT 21/16 A3008 RMK A01 T02060159  RH  078%=      5-min Rain = 0
KWOS 261005Z 18009KT 21/16 A3008 RMK A01 T02050159  RH  079%=      5-min Rain = 0
KWOS 261010Z 17009KT 21/16 A3008 RMK A01 T02050160  RH  079%=      5-min Rain = 0
KWOS 261015Z 18010KT 20/16 A3008 RMK A01 T02040159  RH  079%=      5-min Rain = 0
KWOS 261020Z 19011KT 21/16 A3007 RMK A01 T02050159  RH  079%=      5-min Rain = 0
KWOS 261025Z 19011KT 21/16 A3007 RMK A01 T02060159  RH  078%=      5-min Rain = 0
KWOS 261030Z 18009KT 21/16 A3008 RMK A01 T02060159  RH  078%=      5-min Rain = 0
KWOS 261035Z 18009KT 20/16 A3008 RMK A01 T02040159  RH  079%=      5-min Rain = 0
KWOS 261040Z 18009KT 20/16 A3008 RMK A01 T02020159  RH  080%=      5-min Rain = 0
KWOS 261045Z 18010KT 20/16 A3008 RMK A01 T02010159  RH  080%=      5-min Rain = 0
KWOS 261050Z 19011KT 20/16 A3008 RMK A01 T02030159  RH  080%=      5-min Rain = 0
KWOS 261055Z 19011KT 20/16 A3008 RMK A01 T02030160  RH  080%=      5-min Rain = 0
KWOS 261100Z 19011KT 20/16 A3009 RMK A01 T02030160  RH  080%=      5-min Rain = 0
KWOS 261105Z 19010KT 20/16 A3009 RMK A01 T02030161  RH  080%=      5-min Rain = 0
KWOS 261110Z 19010KT 20/16 A3009 RMK A01 T02010161  RH  081%=      5-min Rain = 0
KWOS 261115Z 19009KT 20/16 A3009 RMK A01 T02000160  RH  082%=      5-min Rain = 0
KWOS 261120Z 18009KT 20/16 A3009 RMK A01 T01980160  RH  083%=      5-min Rain = 0
KWOS 261125Z 18010KT 20/16 A3009 RMK A01 T01960160  RH  083%=      5-min Rain = 0
KWOS 261130Z 18010KT 20/16 A3009 RMK A01 T01960160  RH  083%=      5-min Rain = 0
KWOS 261135Z 18010KT 20/16 A3009 RMK A01 T01970160  RH  083%=      5-min Rain = 0
KWOS 261140Z 19010KT 20/16 A3009 RMK A01 T01970160  RH  083%=      5-min Rain = 0
KWOS 261145Z 19009KT 20/16 A3009 RMK A01 T01960160  RH  084%=      5-min Rain = 0
KWOS 261150Z 19009KT 20/16 A301 RMK A01 T01960160  RH  084%=      5-min Rain = 0
KWOS 261155Z 19009KT 20/16 A301 RMK A01 T01950160  RH  084%=      5-min Rain = 0
KWOS 261200Z 19008KT 19/16 A301 RMK A01 T01940160  RH  085%=      5-min Rain = 0
KWOS 261205Z 18009KT 19/16 A301 RMK A01 T01940161  RH  085%=      5-min Rain = 0
KWOS 261210Z 19008KT 20/16 A301 RMK A01 T01950161  RH  085%=      5-min Rain = 0
KWOS 261215Z 19008KT 20/16 A301 RMK A01 T01950161  RH  085%=      5-min Rain = 0
KWOS 261220Z 19008KT 20/16 A301 RMK A01 T01960162  RH  084%=      5-min Rain = 0
KWOS 261225Z 19008KT 20/16 A301 RMK A01 T01970162  RH  084%=      5-min Rain = 0
KWOS 261230Z 18007KT 20/16 A3011 RMK A01 T01980163  RH  084%=      5-min Rain = 0
KWOS 261235Z 18007KT 20/16 A3011 RMK A01 T01990163  RH  084%=      5-min Rain = 0
KWOS 261240Z 17008KT 20/16 A3011 RMK A01 T02010164  RH  083%=      5-min Rain = 0
KWOS 261245Z 17008KT 20/16 A3011 RMK A01 T02020164  RH  083%=      5-min Rain = 0
KWOS 261250Z 17009KT 20/16 A3011 RMK A01 T02040164  RH  082%=      5-min Rain = 0
KWOS 261255Z 17008KT 21/17 A3012 RMK A01 T02050165  RH  082%=      5-min Rain = 0
KWOS 261300Z 17009KT 21/17 A3012 RMK A01 T02070166  RH  081%=      5-min Rain = 0
KWOS 261305Z 17009KT 21/17 A3012 RMK A01 T02090167  RH  081%=      5-min Rain = 0
KWOS 261310Z 18010KT 21/17 A3012 RMK A01 T02100168  RH  081%=      5-min Rain = 0
KWOS 261315Z 18011KT 21/17 A3012 RMK A01 T02120169  RH  080%=      5-min Rain = 0
KWOS 261320Z 18011KT 22/17 A3012 RMK A01 T02150170  RH  080%=      5-min Rain = 0
KWOS 261325Z 19012KT 22/17 A3012 RMK A01 T02160170  RH  079%=      5-min Rain = 0
KWOS 261330Z 19013KT 22/17 A3013 RMK A01 T02180171  RH  079%=      5-min Rain = 0
KWOS 261335Z 18014KT 22/17 A3013 RMK A01 T02200172  RH  078%=      5-min Rain = 0
KWOS 261340Z 18014KT 22/17 A3013 RMK A01 T02220173  RH  077%=      5-min Rain = 0
KWOS 261345Z 18013KT 23/17 A3014 RMK A01 T02260173  RH  076%=      5-min Rain = 0
KWOS 261350Z 18013KT 23/17 A3014 RMK A01 T02270173  RH  075%=      5-min Rain = 0
KWOS 261355Z 18013G18KT 23/17 A3014 RMK A01 T02300174  RH  075%=      5-min Rain = 0
KWOS 261400Z 18014G19KT 23/17 A3014 RMK A01 T02310174  RH  074%=      5-min Rain = 0
KWOS 261405Z 18014KT 23/17 A3014 RMK A01 T02320174  RH  073%=      5-min Rain = 0
KWOS 261410Z 17014G20KT 23/17 A3014 RMK A01 T02330174  RH  073%=      5-min Rain = 0
KWOS 261415Z 18015KT 23/17 A3015 RMK A01 T02340173  RH  072%=      5-min Rain = 0
KWOS 261420Z 18014KT 24/17 A3015 RMK A01 T02360174  RH  071%=      5-min Rain = 0
KWOS 261425Z 18012KT 24/18 A3015 RMK A01 T02380175  RH  071%=      5-min Rain = 0
KWOS 261430Z 18013KT 24/17 A3015 RMK A01 T02420174  RH  069%=      5-min Rain = 0
KWOS 261435Z 18012KT 24/17 A3015 RMK A01 T02440174  RH  068%=      5-min Rain = 0
KWOS 261440Z 18012KT 25/18 A3015 RMK A01 T02490175  RH  067%=      5-min Rain = 0
KWOS 261445Z 18012KT 25/17 A3015 RMK A01 T02510174  RH  065%=      5-min Rain = 0
KWOS 261450Z 18012KT 25/17 A3015 RMK A01 T02530173  RH  065%=      5-min Rain = 0
KWOS 261455Z 19012KT 26/17 A3015 RMK A01 T02550173  RH  063%=      5-min Rain = 0
KWOS 261500Z 19011KT 26/17 A3014 RMK A01 T02560172  RH  063%=      5-min Rain = 0
KWOS 261505Z 19012KT 26/17 A3014 RMK A01 T02590170  RH  061%=      5-min Rain = 0
KWOS 261510Z 18011KT 26/17 A3014 RMK A01 T02590170  RH  061%=      5-min Rain = 0
KWOS 261515Z 19011KT 26/17 A3014 RMK A01 T02630172  RH  060%=      5-min Rain = 0
KWOS 261520Z 19012G17KT 27/17 A3014 RMK A01 T02660170  RH  058%=      5-min Rain = 0
KWOS 261525Z 19012G17KT 27/17 A3014 RMK A01 T02650170  RH  059%=      5-min Rain = 0
KWOS 261530Z 18011KT 27/17 A3014 RMK A01 T02680171  RH  058%=      5-min Rain = 0
KWOS 261535Z 18013KT 27/17 A3014 RMK A01 T02710165  RH  055%=      5-min Rain = 0
KWOS 261540Z 19013KT 27/16 A3014 RMK A01 T02720164  RH  054%=      5-min Rain = 0
KWOS 261545Z 19014KT 27/16 A3014 RMK A01 T02740159  RH  052%=      5-min Rain = 0
KWOS 261550Z 18013KT 28/16 A3014 RMK A01 T02760161  RH  052%=      5-min Rain = 0
KWOS 261555Z 18011KT 28/16 A3014 RMK A01 T02770163  RH  052%=      5-min Rain = 0
KWOS 261600Z 18013G18KT 28/16 A3014 RMK A01 T02820161  RH  050%=      5-min Rain = 0
KWOS 261605Z 18013G18KT 28/16 A3014 RMK A01 T02840164  RH  051%=      5-min Rain = 0
KWOS 261610Z 18014KT 28/16 A3014 RMK A01 T02830160  RH  050%=      5-min Rain = 0
KWOS 261615Z 19015KT 29/16 A3014 RMK A01 T02850155  RH  047%=      5-min Rain = 0
KWOS 261620Z 18011G18KT 29/16 A3014 RMK A01 T02890159  RH  047%=      5-min Rain = 0
KWOS 261625Z 18014KT 29/16 A3014 RMK A01 T02870155  RH  047%=      5-min Rain = 0
KWOS 261630Z 20014G20KT 29/15 A3014 RMK A01 T02900153  RH  046%=      5-min Rain = 0
KWOS 261635Z 20014G19KT 29/15 A3014 RMK A01 T02880148  RH  044%=      5-min Rain = 0
KWOS 261640Z 21012G18KT 29/15 A3014 RMK A01 T02900149  RH  044%=      5-min Rain = 0
KWOS 261645Z 19011KT 29/15 A3015 RMK A01 T02930152  RH  044%=      5-min Rain = 0
KWOS 261650Z 20011KT 30/15 A3015 RMK A01 T02980152  RH  043%=      5-min Rain = 0
KWOS 261655Z 21012KT 30/15 A3015 RMK A01 T02960150  RH  043%=      5-min Rain = 0
KWOS 261700Z 19013G18KT 30/15 A3015 RMK A01 T02980149  RH  042%=      5-min Rain = 0
KWOS 261705Z 19012G18KT 30/15 A3014 RMK A01 T03000147  RH  041%=      5-min Rain = 0
KWOS 261710Z 19011G17KT 30/14 A3014 RMK A01 T03040142  RH  039%=      5-min Rain = 0
KWOS 261715Z 18011G18KT 31/15 A3014 RMK A01 T03050147  RH  040%=      5-min Rain = 0
KWOS 261720Z 18012KT 31/14 A3014 RMK A01 T03090143  RH  038%=      5-min Rain = 0
KWOS 261725Z 18009G19KT 31/15 A3014 RMK A01 T03070145  RH  039%=      5-min Rain = 0
KWOS 261730Z 18012G18KT 31/15 A3014 RMK A01 T03140145  RH  038%=      5-min Rain = 0
KWOS 261735Z 17010G17KT 31/14 A3014 RMK A01 T03120141  RH  037%=      5-min Rain = 0
KWOS 261740Z 18012G19KT 32/14 A3014 RMK A01 T03190137  RH  035%=      5-min Rain = 0
KWOS 261745Z 18011KT 32/13 A3014 RMK A01 T03150134  RH  035%=      5-min Rain = 0
KWOS 261750Z 17011G19KT 32/14 A3014 RMK A01 T03150137  RH  035%=      5-min Rain = 0
KWOS 261755Z 18013KT 32/14 A3014 RMK A01 T03180137  RH  035%=      5-min Rain = 0
KWOS 261800Z 17012G22KT 32/14 A3014 RMK A01 T03190141  RH  035%=      5-min Rain = 0
KWOS 261805Z 17012G17KT 32/14 A3014 RMK A01 T03200139  RH  035%=      5-min Rain = 0
KWOS 261810Z 16013KT 32/13 A3014 RMK A01 T03200131  RH  033%=      5-min Rain = 0
KWOS 261815Z 16011G17KT 32/13 A3014 RMK A01 T03200129  RH  032%=      5-min Rain = 0
KWOS 261820Z 15011G18KT 32/14 A3014 RMK A01 T03240137  RH  034%=      5-min Rain = 0
KWOS 261825Z 16012G18KT 33/13 A3014 RMK A01 T03250127  RH  031%=      5-min Rain = 0
KWOS 261830Z 15010G20KT 33/13 A3014 RMK A01 T03270132  RH  032%=      5-min Rain = 0
KWOS 261835Z 14013G18KT 33/14 A3014 RMK A01 T03270135  RH  032%=      5-min Rain = 0
KWOS 261840Z 17013G18KT 33/13 A3013 RMK A01 T03250131  RH  032%=      5-min Rain = 0
KWOS 261845Z 16011KT 33/14 A3013 RMK A01 T03250136  RH  033%=      5-min Rain = 0
KWOS 261850Z 15012KT 33/14 A3013 RMK A01 T03300138  RH  033%=      5-min Rain = 0
KWOS 261855Z 16014G19KT 33/12 A3013 RMK A01 T03300124  RH  030%=      5-min Rain = 0
KWOS 261900Z 18011G20KT 33/13 A3013 RMK A01 T03280128  RH  031%=      5-min Rain = 0
KWOS 261905Z 16012G20KT 33/14 A3013 RMK A01 T03290140  RH  033%=      5-min Rain = 0
KWOS 261910Z 15013KT 33/14 A3013 RMK A01 T03310139  RH  033%=      5-min Rain = 0
KWOS 261915Z 16015G21KT 33/14 A3013 RMK A01 T03270137  RH  033%=      5-min Rain = 0
KWOS 261920Z 15013G19KT 32/13 A3013 RMK A01 T03240132  RH  032%=      5-min Rain = 0
KWOS 261925Z 16013G19KT 33/13 A3013 RMK A01 T03270131  RH  032%=      5-min Rain = 0
KWOS 261930Z 16010G15KT 34/13 A3013 RMK A01 T03360133  RH  031%=      5-min Rain = 0
KWOS 261935Z 17011G17KT 33/12 A3012 RMK A01 T03320122  RH  029%=      5-min Rain = 0
KWOS 261940Z 16012G21KT 33/13 A3012 RMK A01 T03290133  RH  032%=      5-min Rain = 0
KWOS 261945Z 14014G21KT 33/14 A3012 RMK A01 T03330139  RH  032%=      5-min Rain = 0
KWOS 261950Z 14016G22KT 33/13 A3012 RMK A01 T03330130  RH  030%=      5-min Rain = 0
KWOS 261955Z 15013G20KT 33/14 A3012 RMK A01 T03280135  RH  032%=      5-min Rain = 0
KWOS 262000Z 17014G20KT 33/13 A3012 RMK A01 T03310129  RH  031%=      5-min Rain = 0
KWOS 262005Z 17013KT 33/13 A3012 RMK A01 T03290126  RH  030%=      5-min Rain = 0
KWOS 262010Z 17012G21KT 33/12 A3012 RMK A01 T03300124  RH  030%=      5-min Rain = 0
KWOS 262015Z 17013G19KT 33/13 A3012 RMK A01 T03300129  RH  031%=      5-min Rain = 0
KWOS 262020Z 16012G17KT 33/12 A3012 RMK A01 T03310121  RH  029%=      5-min Rain = 0
KWOS 262025Z 16012G18KT 33/13 A3011 RMK A01 T03340125  RH  029%=      5-min Rain = 0
KWOS 262030Z 17011G18KT 34/13 A3011 RMK A01 T03380132  RH  030%=      5-min Rain = 0
KWOS 262035Z 17011G19KT 34/14 A3011 RMK A01 T03370136  RH  031%=      5-min Rain = 0
KWOS 262040Z 15013G21KT 34/14 A3011 RMK A01 T03370136  RH  031%=      5-min Rain = 0
KWOS 262045Z 15012G19KT 34/14 A3011 RMK A01 T03350137  RH  032%=      5-min Rain = 0
KWOS 262050Z 15013G18KT 34/14 A3011 RMK A01 T03350139  RH  032%=      5-min Rain = 0
KWOS 262055Z 15013G19KT 34/13 A3011 RMK A01 T03370134  RH  031%=      5-min Rain = 0
KWOS 262100Z 15014G21KT 34/13 A301 RMK A01 T03360133  RH  031%=      5-min Rain = 0
KWOS 262105Z 16014G20KT 34/14 A301 RMK A01 T03350135  RH  031%=      5-min Rain = 0
KWOS 262110Z 15013G24KT 34/14 A301 RMK A01 T03360136  RH  031%=      5-min Rain = 0
KWOS 262115Z 16014G21KT 34/13 A301 RMK A01 T03350132  RH  031%=      5-min Rain = 0
KWOS 262120Z 17012G18KT 33/13 A301 RMK A01 T03330125  RH  029%=      5-min Rain = 0
KWOS 262125Z 14014G20KT 34/12 A301 RMK A01 T03380119  RH  028%=      5-min Rain = 0
KWOS 262130Z 15011G17KT 34/12 A301 RMK A01 T03390120  RH  027%=      5-min Rain = 0
KWOS 262135Z 15014G21KT 34/13 A3009 RMK A01 T03380130  RH  030%=      5-min Rain = 0
KWOS 262140Z 16014G20KT 33/13 A3009 RMK A01 T03330129  RH  030%=      5-min Rain = 0
KWOS 262145Z 17015G21KT 33/13 A3009 RMK A01 T03330131  RH  031%=      5-min Rain = 0
KWOS 262150Z 15014G19KT 33/13 A3009 RMK A01 T03340131  RH  031%=      5-min Rain = 0
KWOS 262155Z 16012G20KT 34/14 A3009 RMK A01 T03360135  RH  031%=      5-min Rain = 0
KWOS 262200Z 17016G24KT 34/13 A3008 RMK A01 T03350133  RH  031%=      5-min Rain = 0
KWOS 262205Z 16015G21KT 33/13 A3009 RMK A01 T03330134  RH  031%=      5-min Rain = 0
KWOS 262210Z 16014G22KT 33/14 A3009 RMK A01 T03320136  RH  032%=      5-min Rain = 0
KWOS 262215Z 15013G18KT 33/13 A3009 RMK A01 T03320134  RH  031%=      5-min Rain = 0
KWOS 262220Z 16013G18KT 33/13 A3009 RMK A01 T03330132  RH  031%=      5-min Rain = 0
KWOS 262225Z 17015G20KT 33/13 A3009 RMK A01 T03280134  RH  032%=      5-min Rain = 0
KWOS 262230Z 15013G18KT 33/15 A3009 RMK A01 T03290145  RH  034%=      5-min Rain = 0
KWOS 262235Z 15016G21KT 33/15 A3009 RMK A01 T03310145  RH  034%=      5-min Rain = 0
KWOS 262240Z 16013G19KT 33/14 A3009 RMK A01 T03260142  RH  034%=      5-min Rain = 0
KWOS 262245Z 15014KT 33/14 A3009 RMK A01 T03280140  RH  034%=      5-min Rain = 0
KWOS 262250Z 15013G20KT 33/14 A3009 RMK A01 T03260139  RH  034%=      5-min Rain = 0
KWOS 262255Z 15015G20KT 33/14 A3009 RMK A01 T03290137  RH  033%=      5-min Rain = 0
KWOS 262300Z 16014G22KT 33/14 A3009 RMK A01 T03280136  RH  033%=      5-min Rain = 0
KWOS 262305Z 15014G21KT 33/14 A3008 RMK A01 T03250138  RH  034%=      5-min Rain = 0
KWOS 262310Z 15015G22KT 33/14 A3008 RMK A01 T03250137  RH  033%=      5-min Rain = 0
KWOS 262315Z 14016G21KT 33/14 A3008 RMK A01 T03260138  RH  033%=      5-min Rain = 0
KWOS 262320Z 14016G21KT 33/14 A3008 RMK A01 T03250137  RH  033%=      5-min Rain = 0
KWOS 262325Z 15014G19KT 32/14 A3008 RMK A01 T03230135  RH  033%=      5-min Rain = 0
KWOS 262330Z 16016G21KT 32/14 A3008 RMK A01 T03240135  RH  033%=      5-min Rain = 0
KWOS 262335Z 15014G21KT 32/13 A3008 RMK A01 T03220133  RH  033%=      5-min Rain = 0
KWOS 262340Z 14016KT 32/13 A3008 RMK A01 T03220129  RH  032%=      5-min Rain = 0
KWOS 262345Z 15014G19KT 32/13 A3008 RMK A01 T03200125  RH  032%=      5-min Rain = 0
KWOS 262350Z 15014G20KT 32/13 A3008 RMK A01 T03200125  RH  032%=      5-min Rain = 0
KWOS 262355Z 15014G20KT 32/13 A3009 RMK A01 T03190125  RH  032%=      5-min Rain = 0
KWOS 270000Z 16014KT 32/13 A3009 RMK A01 T03190127  RH  032%=      5-min Rain = 0
KWOS 270005Z 15013G19KT 32/13 A3009 RMK A01 T03170127  RH  033%=      5-min Rain = 0
KWOS 270010Z 15013KT 32/13 A3009 RMK A01 T03170127  RH  033%=      5-min Rain = 0
KWOS 270015Z 15014G19KT 32/13 A3009 RMK A01 T03150126  RH  033%=      5-min Rain = 0
KWOS 270020Z 15012G17KT 31/13 A3009 RMK A01 T03110128  RH  034%=      5-min Rain = 0
KWOS 270025Z 15014G20KT 31/13 A3009 RMK A01 T03130132  RH  034%=      5-min Rain = 0
KWOS 270030Z 15014G19KT 31/13 A3009 RMK A01 T03120125  RH  033%=      5-min Rain = 0
KWOS 270035Z 15014G19KT 31/13 A3009 RMK A01 T03110132  RH  035%=      5-min Rain = 0
KWOS 270040Z 15015KT 31/13 A3009 RMK A01 T03110131  RH  035%=      5-min Rain = 0
KWOS 270045Z 15015KT 31/13 A3009 RMK A01 T03100129  RH  034%=      5-min Rain = 0
KWOS 270050Z 16013KT 31/13 A3009 RMK A01 T03090130  RH  035%=      5-min Rain = 0
KWOS 270055Z 16014KT 31/13 A3009 RMK A01 T03050130  RH  036%=      5-min Rain = 0
KWOS 270100Z 15012G19KT 30/13 A3009 RMK A01 T03010128  RH  036%=      5-min Rain = 0
KWOS 270105Z 15012G18KT 30/13 A3009 RMK A01 T02990129  RH  036%=      5-min Rain = 0
KWOS 270110Z 15013G19KT 30/13 A3009 RMK A01 T02970134  RH  038%=      5-min Rain = 0
KWOS 270115Z 16012KT 30/13 A301 RMK A01 T02960134  RH  039%=      5-min Rain = 0
KWOS 270120Z 15013G18KT 30/14 A301 RMK A01 T02970135  RH  039%=      5-min Rain = 0
KWOS 270125Z 15014KT 30/14 A301 RMK A01 T02950139  RH  040%=      5-min Rain = 0
KWOS 270130Z 14015G20KT 29/14 A301 RMK A01 T02930141  RH  041%=      5-min Rain = 0
KWOS 270135Z 14014KT 29/14 A301 RMK A01 T02900141  RH  042%=      5-min Rain = 0
KWOS 270140Z 14013KT 29/14 A301 RMK A01 T02870140  RH  042%=      5-min Rain = 0
KWOS 270145Z 14013KT 29/14 A301 RMK A01 T02850139  RH  042%=      5-min Rain = 0
KWOS 270150Z 14012KT 28/14 A3011 RMK A01 T02830139  RH  043%=      5-min Rain = 0
KWOS 270155Z 14012KT 28/14 A3011 RMK A01 T02820138  RH  043%=      5-min Rain = 0
KWOS 270200Z 14011KT 28/14 A3011 RMK A01 T02800138  RH  044%=      5-min Rain = 0
KWOS 270205Z 14011KT 28/14 A3011 RMK A01 T02780138  RH  044%=      5-min Rain = 0
KWOS 270210Z 14011KT 28/14 A3012 RMK A01 T02760138  RH  045%=      5-min Rain = 0
KWOS 270215Z 14010KT 27/14 A3012 RMK A01 T02730138  RH  045%=      5-min Rain = 0
KWOS 270220Z 14009KT 27/14 A3012 RMK A01 T02720138  RH  046%=      5-min Rain = 0
KWOS 270225Z 14009KT 27/14 A3013 RMK A01 T02700138  RH  046%=      5-min Rain = 0
KWOS 270230Z 14009KT 27/14 A3013 RMK A01 T02680138  RH  047%=      5-min Rain = 0
KWOS 270235Z 14008KT 27/14 A3013 RMK A01 T02650139  RH  048%=      5-min Rain = 0
KWOS 270240Z 13008KT 26/14 A3014 RMK A01 T02610140  RH  049%=      5-min Rain = 0
KWOS 270245Z 14009KT 26/14 A3014 RMK A01 T02600142  RH  050%=      5-min Rain = 0
KWOS 270250Z 14008KT 26/14 A3014 RMK A01 T02610143  RH  050%=      5-min Rain = 0
KWOS 270255Z 14008KT 26/14 A3014 RMK A01 T02600144  RH  051%=      5-min Rain = 0
KWOS 270300Z 14008KT 26/15 A3015 RMK A01 T02590145  RH  052%=      5-min Rain = 0
KWOS 270305Z 14007KT 26/15 A3015 RMK A01 T02570145  RH  052%=      5-min Rain = 0
KWOS 270310Z 14006KT 26/15 A3016 RMK A01 T02550146  RH  053%=      5-min Rain = 0
KWOS 270315Z 14006KT 25/15 A3016 RMK A01 T02530146  RH  054%=      5-min Rain = 0
KWOS 270320Z 14006KT 25/15 A3017 RMK A01 T02490147  RH  056%=      5-min Rain = 0
KWOS 270325Z 14006KT 25/15 A3017 RMK A01 T02450147  RH  057%=      5-min Rain = 0
KWOS 270330Z 14006KT 24/15 A3017 RMK A01 T02430148  RH  058%=      5-min Rain = 0
KWOS 270335Z 14006KT 24/15 A3017 RMK A01 T02390148  RH  059%=      5-min Rain = 0
KWOS 270340Z 13006KT 24/15 A3018 RMK A01 T02360148  RH  060%=      5-min Rain = 0
KWOS 270345Z 13006KT 23/15 A3018 RMK A01 T02340148  RH  061%=      5-min Rain = 0
KWOS 270350Z 13005KT 23/15 A3018 RMK A01 T02330149  RH  062%=      5-min Rain = 0
KWOS 270355Z 12005KT 23/15 A3018 RMK A01 T02330149  RH  062%=      5-min Rain = 0
KWOS 270400Z 12005KT 23/15 A3018 RMK A01 T02330150  RH  062%=      5-min Rain = 0
KWOS 270405Z 13005KT 23/15 A3019 RMK A01 T02310150  RH  063%=      5-min Rain = 0
KWOS 270410Z 13005KT 23/15 A3019 RMK A01 T02280150  RH  064%=      5-min Rain = 0
KWOS 270415Z 13005KT 23/15 A3019 RMK A01 T02270151  RH  065%=      5-min Rain = 0
KWOS 270420Z 13005KT 23/15 A3019 RMK A01 T02250150  RH  065%=      5-min Rain = 0
KWOS 270425Z 12005KT 22/15 A3019 RMK A01 T02220150  RH  066%=      5-min Rain = 0
KWOS 270430Z 12005KT 22/15 A3019 RMK A01 T02210149  RH  067%=      5-min Rain = 0
KWOS 270435Z 12005KT 22/15 A3019 RMK A01 T02200149  RH  067%=      5-min Rain = 0
KWOS 270440Z 12004KT 22/15 A3019 RMK A01 T02190149  RH  067%=      5-min Rain = 0
KWOS 270445Z 10002KT 22/15 A302 RMK A01 T02210150  RH  067%=      5-min Rain = 0
KWOS 270450Z 04001KT 23/15 A302 RMK A01 T02250147  RH  064%=      5-min Rain = 0
KWOS 270455Z 02002KT 22/14 A302 RMK A01 T02240143  RH  063%=      5-min Rain = 0

Page generated in 0.0097 seconds.